Time;durP1;ratioP1;P1;durP2;ratioP2;P2;SDS_P1;SDS_P2;PMS_P1;PMS_P2;Temp;Humidity;BMP_temperature;BMP_pressure;BME280_temperature;BME280_humidity;BME280_pressure;Samples;Min_cycle;Max_cycle;Signal;HPM_P1;HPM_P2
2022/01/04 00:01:41;;;;;;;1.35;0.70;;;;;;;;;;5031900;28;20406;-89
2022/01/04 00:04:11;;;;;;;1.75;1.20;;;;;;;;;;5032018;28;20123;-89
2022/01/04 00:06:37;;;;;;;1.67;1.10;;;;;;;;;;5032098;28;20112;-89
2022/01/04 00:09:05;;;;;;;1.77;1.00;;;;;;;;;;5032387;28;20058;-88
2022/01/04 00:11:57;;;;;;;4.30;1.23;;;;;;;;;;5014630;28;20028;-89
2022/01/04 00:14:26;;;;;;;1.60;1.02;;;;;;;;;;5014068;28;20017;-88
2022/01/04 00:16:55;;;;;;;0.80;0.80;;;;;;;;;;5016058;28;20078;-89
2022/01/04 00:19:26;;;;;;;1.88;0.82;;;;;;;;;;5016551;28;20033;-89
2022/01/04 00:21:53;;;;;;;2.37;1.17;;;;;;;;;;5032724;28;20033;-88
2022/01/04 00:24:19;;;;;;;1.98;1.33;;;;;;;;;;5033744;28;20255;-89
2022/01/04 00:26:47;;;;;;;2.08;1.00;;;;;;;;;;5032502;28;20029;-88
2022/01/04 00:29:19;;;;;;;1.08;0.98;;;;;;;;;;5015376;28;20029;-88
2022/01/04 00:31:47;;;;;;;1.85;0.90;;;;;;;;;;5018903;28;20041;-89
2022/01/04 00:34:16;;;;;;;1.15;0.90;;;;;;;;;;5019116;28;20391;-88
2022/01/04 00:36:45;;;;;;;1.63;0.95;;;;;;;;;;5019414;28;20017;-88
2022/01/04 00:39:10;;;;;;;2.20;1.05;;;;;;;;;;5017460;28;20024;-88
2022/01/04 00:41:35;;;;;;;2.63;1.10;;;;;;;;;;5018880;28;20029;-88
2022/01/04 00:44:22;;;;;;;3.60;1.85;;;;;;;;;;5015241;28;20029;-88
2022/01/04 00:46:51;;;;;;;2.58;1.42;;;;;;;;;;5014560;28;20029;-86
2022/01/04 00:49:17;;;;;;;2.55;1.05;;;;;;;;;;5014349;28;20032;-87
2022/01/04 00:51:51;;;;;;;1.15;1.05;;;;;;;;;;5035981;28;20057;-87
2022/01/04 00:54:21;;;;;;;2.30;1.10;;;;;;;;;;5031437;28;20060;-86
2022/01/04 00:56:47;;;;;;;2.15;1.17;;;;;;;;;;5018170;28;20048;-88
2022/01/04 00:59:13;;;;;;;5.18;2.00;;;;;;;;;;5017587;28;20028;-88
2022/01/04 01:01:58;;;;;;;4.55;2.08;;;;;;;;;;5016325;28;20029;-87
2022/01/04 01:04:23;;;;;;;3.60;1.70;;;;;;;;;;5011230;28;20112;-88
2022/01/04 01:06:51;;;;;;;8.45;3.20;;;;;;;;;;5031724;28;20112;-86
2022/01/04 01:09:17;;;;;;;1.88;1.40;;;;;;;;;;5031492;28;20021;-87
2022/01/04 01:11:43;;;;;;;1.77;1.60;;;;;;;;;;5033736;28;20385;-87
2022/01/04 01:14:09;;;;;;;2.80;1.75;;;;;;;;;;5032172;28;20036;-88
2022/01/04 01:16:34;;;;;;;1.85;1.25;;;;;;;;;;5014136;28;20025;-86
2022/01/04 01:19:00;;;;;;;1.20;1.10;;;;;;;;;;5014572;28;20086;-87
2022/01/04 01:21:25;;;;;;;1.05;0.88;;;;;;;;;;5035442;28;20056;-87
2022/01/04 01:23:51;;;;;;;2.05;1.15;;;;;;;;;;5018677;28;20018;-87
2022/01/04 01:26:25;;;;;;;1.48;1.25;;;;;;;;;;5022665;28;20009;-87
2022/01/04 01:28:51;;;;;;;0.80;0.80;;;;;;;;;;5055573;28;20029;-87
2022/01/04 01:31:16;;;;;;;3.88;1.23;;;;;;;;;;5042320;28;20071;-86
2022/01/04 01:33:42;;;;;;;1.88;1.02;;;;;;;;;;5035573;28;20388;-86
2022/01/04 01:36:08;;;;;;;2.42;1.00;;;;;;;;;;5023431;28;20171;-87
2022/01/04 01:38:33;;;;;;;1.83;1.15;;;;;;;;;;5019536;28;20021;-87
2022/01/04 01:40:59;;;;;;;1.33;0.70;;;;;;;;;;5021589;28;20026;-87
2022/01/04 01:43:28;;;;;;;1.73;0.95;;;;;;;;;;5022082;28;20040;-87
2022/01/04 01:45:54;;;;;;;1.08;1.08;;;;;;;;;;5034342;28;20029;-86
2022/01/04 01:48:20;;;;;;;2.15;1.20;;;;;;;;;;5049796;28;20021;-89
2022/01/04 01:50:46;;;;;;;1.50;1.00;;;;;;;;;;5026066;28;20026;-87
2022/01/04 01:53:11;;;;;;;2.47;1.08;;;;;;;;;;5032592;28;20029;-87
2022/01/04 01:55:36;;;;;;;2.35;1.10;;;;;;;;;;5016013;28;20469;-88
2022/01/04 01:58:02;;;;;;;1.77;1.20;;;;;;;;;;5024281;28;20443;-87
2022/01/04 02:00:29;;;;;;;1.55;1.00;;;;;;;;;;5032346;28;20424;-87
2022/01/04 02:02:55;;;;;;;2.30;1.30;;;;;;;;;;5016011;28;20017;-88
2022/01/04 02:05:21;;;;;;;0.90;0.77;;;;;;;;;;5049586;28;20029;-88
2022/01/04 02:07:47;;;;;;;1.48;1.10;;;;;;;;;;5042418;28;20049;-88
2022/01/04 02:10:12;;;;;;;1.80;1.00;;;;;;;;;;5049002;28;20472;-88
2022/01/04 02:12:46;;;;;;;2.35;1.38;;;;;;;;;;5039659;28;20076;-88
2022/01/04 02:15:15;;;;;;;1.27;1.10;;;;;;;;;;5027900;28;20383;-87
2022/01/04 02:17:40;;;;;;;1.20;1.10;;;;;;;;;;5040748;28;20027;-87
2022/01/04 02:20:07;;;;;;;1.17;1.10;;;;;;;;;;5038025;28;20035;-87
2022/01/04 02:22:33;;;;;;;1.73;1.02;;;;;;;;;;5025204;28;20515;-87
2022/01/04 02:24:59;;;;;;;1.10;1.00;;;;;;;;;;5019314;28;20041;-88
2022/01/04 02:27:24;;;;;;;2.60;1.35;;;;;;;;;;5019793;28;20030;-88
2022/01/04 02:29:50;;;;;;;1.95;1.25;;;;;;;;;;5037543;28;20031;-86
2022/01/04 02:32:16;;;;;;;1.50;1.20;;;;;;;;;;5045530;28;20049;-87
2022/01/04 02:34:49;;;;;;;2.65;1.33;;;;;;;;;;5019329;28;20048;-87
2022/01/04 02:37:33;;;;;;;1.20;1.10;;;;;;;;;;5021541;28;20013;-88
2022/01/04 02:40:05;;;;;;;1.42;1.23;;;;;;;;;;5016860;28;20033;-86
2022/01/04 02:42:31;;;;;;;1.55;1.20;;;;;;;;;;5019376;28;20032;-86
2022/01/04 02:45:00;;;;;;;1.67;1.40;;;;;;;;;;5019196;28;20458;-86
2022/01/04 02:47:32;;;;;;;2.08;1.30;;;;;;;;;;5027306;28;20024;-86
2022/01/04 02:49:57;;;;;;;;;;;;;;;;;;5043302;28;20025;-86
2022/01/04 02:52:23;;;;;;;3.22;1.80;;;;;;;;;;5041223;28;20042;-87
2022/01/04 02:54:55;;;;;;;1.50;1.40;;;;;;;;;;5057031;28;20060;-87
2022/01/04 02:57:20;;;;;;;3.65;1.33;;;;;;;;;;5038871;28;20036;-86
2022/01/04 02:59:46;;;;;;;2.00;1.58;;;;;;;;;;5036136;28;20056;-87
2022/01/04 03:02:11;;;;;;;2.45;1.42;;;;;;;;;;5037333;28;20400;-86
2022/01/04 03:04:37;;;;;;;1.38;1.25;;;;;;;;;;5019532;28;20029;-87
2022/01/04 03:07:05;;;;;;;2.50;1.50;;;;;;;;;;5021386;28;20025;-87
2022/01/04 03:09:30;;;;;;;2.00;1.40;;;;;;;;;;5039437;28;20107;-88
2022/01/04 03:11:56;;;;;;;3.22;1.58;;;;;;;;;;5038931;28;20059;-87
2022/01/04 03:14:23;;;;;;;2.40;1.50;;;;;;;;;;5021064;28;20025;-86
2022/01/04 03:16:53;;;;;;;1.42;1.33;;;;;;;;;;5017649;28;20030;-85
2022/01/04 03:19:22;;;;;;;1.23;1.13;;;;;;;;;;5019460;28;20013;-87
2022/01/04 03:21:47;;;;;;;2.17;1.30;;;;;;;;;;5040222;28;20113;-88
2022/01/04 03:24:16;;;;;;;2.60;1.20;;;;;;;;;;5040917;28;20029;-86
2022/01/04 03:29:31;;;;;;;2.45;1.30;;;;;;;;;;5051220;28;20033;-87
2022/01/04 03:31:58;;;;;;;1.70;1.30;;;;;;;;;;5016578;28;20021;-88
2022/01/04 03:34:24;;;;;;;1.55;1.40;;;;;;;;;;5041144;28;20108;-88
2022/01/04 03:36:50;;;;;;;1.23;1.10;;;;;;;;;;5038123;28;20028;-88
2022/01/04 03:39:16;;;;;;;3.45;1.52;;;;;;;;;;5038040;28;20025;-90
2022/01/04 03:41:44;;;;;;;1.92;1.33;;;;;;;;;;5020771;28;20030;-88
2022/01/04 03:44:15;;;;;;;1.88;1.45;;;;;;;;;;5028447;28;20029;-89
2022/01/04 03:46:43;;;;;;;2.53;1.30;;;;;;;;;;5035176;28;20025;-88
2022/01/04 03:49:09;;;;;;;2.38;1.50;;;;;;;;;;5028930;28;20123;-91
2022/01/04 03:51:37;;;;;;;1.63;1.30;;;;;;;;;;5037487;28;20491;-91
2022/01/04 03:54:06;;;;;;;7.88;1.40;;;;;;;;;;5028874;28;20484;-91
2022/01/04 03:56:32;;;;;;;3.80;1.27;;;;;;;;;;5017276;28;20028;-90
2022/01/04 03:59:01;;;;;;;1.80;1.10;;;;;;;;;;5047658;28;20448;-90
2022/01/04 04:01:27;;;;;;;2.75;1.05;;;;;;;;;;5036360;28;20088;-90
2022/01/04 04:04:11;;;;;;;2.22;1.25;;;;;;;;;;5017845;28;20038;-90
2022/01/04 04:06:38;;;;;;;2.55;1.70;;;;;;;;;;5001741;28;20504;-90
2022/01/04 04:09:07;;;;;;;1.52;1.27;;;;;;;;;;5035565;28;20033;-91
2022/01/04 04:11:54;;;;;;;1.05;1.05;;;;;;;;;;5017294;28;20037;-90
2022/01/04 04:14:21;;;;;;;2.67;1.50;;;;;;;;;;5034402;28;20095;-89
2022/01/04 04:17:04;;;;;;;0.95;0.93;;;;;;;;;;5024975;28;20013;-89
2022/01/04 04:20:34;;;;;;;2.55;1.30;;;;;;;;;;5037406;28;20036;-89
2022/01/04 04:23:12;;;;;;;1.40;0.93;;;;;;;;;;5037515;28;20064;-89
2022/01/04 04:25:57;;;;;;;1.00;1.00;;;;;;;;;;5036667;28;20033;-89
2022/01/04 04:28:25;;;;;;;1.23;1.10;;;;;;;;;;5034313;28;20081;-89
2022/01/04 04:31:07;;;;;;;1.13;1.02;;;;;;;;;;5016982;28;20043;-90
2022/01/04 04:33:39;;;;;;;1.23;0.93;;;;;;;;;;5017678;28;20488;-91
2022/01/04 04:36:07;;;;;;;1.25;1.15;;;;;;;;;;5017464;28;20029;-90
2022/01/04 04:38:39;;;;;;;0.98;0.90;;;;;;;;;;5017064;28;20025;-90
2022/01/04 04:41:10;;;;;;;6.38;1.05;;;;;;;;;;5017297;28;20037;-91
2022/01/04 04:43:39;;;;;;;1.10;1.00;;;;;;;;;;5035080;28;20033;-92
2022/01/04 04:46:07;;;;;;;1.15;1.05;;;;;;;;;;5019145;28;20049;-91
2022/01/04 04:48:39;;;;;;;0.80;0.80;;;;;;;;;;5040281;28;20488;-90
2022/01/04 04:51:17;;;;;;;4.05;1.23;;;;;;;;;;5017255;28;20392;-90
2022/01/04 04:54:02;;;;;;;2.03;1.20;;;;;;;;;;5024122;28;20496;-90
2022/01/04 04:56:41;;;;;;;;;;;;;;;;;;;;;
2022/01/04 04:59:15;;;;;;;1.65;0.90;;;;;;;;;;5033754;28;20025;-90
2022/01/04 05:02:07;;;;;;;0.90;0.88;;;;;;;;;;5016390;28;20636;-91
2022/01/04 05:05:15;;;;;;;1.20;0.90;;;;;;;;;;5015411;28;20047;-90
2022/01/04 05:07:50;;;;;;;1.55;1.00;;;;;;;;;;5033294;28;20407;-91
2022/01/04 05:10:44;;;;;;;1.60;1.10;;;;;;;;;;5037778;28;20623;-90
2022/01/04 05:13:10;;;;;;;1.50;1.20;;;;;;;;;;5035821;28;20134;-89
2022/01/04 05:15:49;;;;;;;1.55;1.30;;;;;;;;;;5032819;28;20025;-91
2022/01/04 05:18:56;;;;;;;3.80;1.10;;;;;;;;;;5019482;28;20019;-90
2022/01/04 05:21:48;;;;;;;0.80;0.80;;;;;;;;;;5017495;28;20551;-90
2022/01/04 05:24:41;;;;;;;1.00;1.00;;;;;;;;;;5040464;28;20033;-90
2022/01/04 05:27:44;;;;;;;1.00;0.90;;;;;;;;;;5016850;28;20034;-91
2022/01/04 05:30:44;;;;;;;;;;;;;;;;;;;;;
2022/01/04 05:33:40;;;;;;;2.20;1.15;;;;;;;;;;5034036;28;20116;-91
2022/01/04 05:36:28;;;;;;;1.17;1.05;;;;;;;;;;5017743;28;20033;-92
2022/01/04 05:39:18;;;;;;;1.77;1.20;;;;;;;;;;5017892;28;20495;-91
2022/01/04 05:42:04;;;;;;;1.63;1.02;;;;;;;;;;5034890;28;20029;-89
2022/01/04 05:44:32;;;;;;;1.10;1.08;;;;;;;;;;5034006;28;20732;-88
2022/01/04 05:50:00;;;;;;;1.77;1.23;;;;;;;;;;5023710;28;20088;-91
2022/01/04 05:52:29;;;;;;;1.25;1.15;;;;;;;;;;5022477;28;20468;-91
2022/01/04 05:55:08;;;;;;;2.33;1.38;;;;;;;;;;5041129;28;20040;-91
2022/01/04 05:58:04;;;;;;;3.33;1.15;;;;;;;;;;5026563;28;20022;-91
2022/01/04 06:00:33;;;;;;;1.10;1.00;;;;;;;;;;5001247;28;20065;-91
2022/01/04 06:03:29;;;;;;;0.80;0.80;;;;;;;;;;5002266;28;20049;-91
2022/01/04 06:06:03;;;;;;;1.27;1.17;;;;;;;;;;4996840;28;20069;-90
2022/01/04 06:08:50;;;;;;;1.90;1.08;;;;;;;;;;5004565;28;20037;-91
2022/01/04 06:17:13;;;;;;;1.00;1.00;;;;;;;;;;5022424;28;20041;-91
2022/01/04 06:19:42;;;;;;;1.95;1.02;;;;;;;;;;5038655;28;20033;-89
2022/01/04 06:22:08;;;;;;;1.55;1.08;;;;;;;;;;5035922;28;20021;-90
2022/01/04 06:24:34;;;;;;;1.00;0.90;;;;;;;;;;5044703;28;20033;-90
2022/01/04 06:27:00;;;;;;;2.10;1.35;;;;;;;;;;5030731;28;20376;-90
2022/01/04 06:29:25;;;;;;;1.25;1.08;;;;;;;;;;5015811;28;20034;-90
2022/01/04 06:31:51;;;;;;;0.90;0.90;;;;;;;;;;5016444;28;20026;-90
2022/01/04 06:34:23;;;;;;;1.90;1.10;;;;;;;;;;5028247;28;20099;-89
2022/01/04 06:36:51;;;;;;;0.85;0.85;;;;;;;;;;5054015;28;20035;-90
2022/01/04 06:39:16;;;;;;;2.13;1.00;;;;;;;;;;5035494;28;20530;-91
2022/01/04 06:41:42;;;;;;;2.45;0.93;;;;;;;;;;5035556;28;20025;-91
2022/01/04 06:44:08;;;;;;;0.70;0.70;;;;;;;;;;5016663;28;20094;-89
2022/01/04 06:46:38;;;;;;;1.77;1.10;;;;;;;;;;5033788;28;20097;-91
2022/01/04 06:49:35;;;;;;;1.08;1.02;;;;;;;;;;5035860;28;20030;-91
2022/01/04 06:52:36;;;;;;;1.30;0.98;;;;;;;;;;5020229;28;20061;-91
2022/01/04 06:59:28;;;;;;;3.17;1.10;;;;;;;;;;4943051;29;20061;-91
2022/01/04 07:01:55;;;;;;;1.20;1.10;;;;;;;;;;4948078;28;20035;-91
2022/01/04 07:05:04;;;;;;;2.42;1.33;;;;;;;;;;4966208;28;20042;-91
2022/01/04 07:07:45;;;;;;;;;;;;;;;;;;;;;
2022/01/04 07:10:16;;;;;;;1.40;0.90;;;;;;;;;;4988264;28;20394;-91
2022/01/04 07:12:48;;;;;;;1.08;0.98;;;;;;;;;;5005815;28;20044;-91
2022/01/04 07:15:43;;;;;;;;;;;;;;;;;;;;;
2022/01/04 07:18:24;;;;;;;2.33;1.90;;;;;;;;;;5040617;28;20326;-92
2022/01/04 07:21:21;;;;;;;6.97;3.35;;;;;;;;;;5014735;28;20128;-91
2022/01/04 07:23:54;;;;;;;3.63;1.20;;;;;;;;;;5035519;28;20029;-91
2022/01/04 07:26:37;;;;;;;1.40;1.27;;;;;;;;;;5031491;28;20547;-92
2022/01/04 07:29:09;;;;;;;1.70;1.40;;;;;;;;;;5028442;28;20438;-91
2022/01/04 07:31:35;;;;;;;4.22;1.80;;;;;;;;;;5032363;28;20407;-93
2022/01/04 07:34:01;;;;;;;1.90;1.80;;;;;;;;;;5036922;28;20056;-94
2022/01/04 07:36:30;;;;;;;8.00;1.52;;;;;;;;;;5055648;28;20029;-94
2022/01/04 07:39:05;;;;;;;0.80;0.80;;;;;;;;;;5055061;28;20032;-95
2022/01/04 07:41:31;;;;;;;1.10;1.08;;;;;;;;;;5047660;28;20063;-92
2022/01/04 07:43:56;;;;;;;2.17;1.00;;;;;;;;;;5043990;28;20037;-91
2022/01/04 07:46:26;;;;;;;0.98;0.88;;;;;;;;;;5027148;28;20036;-92
2022/01/04 07:48:52;;;;;;;1.17;1.00;;;;;;;;;;5048789;28;20045;-92
2022/01/04 07:51:18;;;;;;;1.33;1.00;;;;;;;;;;5032874;28;20024;-93
2022/01/04 07:53:44;;;;;;;1.65;0.90;;;;;;;;;;5036120;28;20021;-94
2022/01/04 07:56:13;;;;;;;2.50;0.90;;;;;;;;;;5034624;28;20415;-91
2022/01/04 07:58:39;;;;;;;2.00;0.90;;;;;;;;;;5038118;28;20048;-92
2022/01/04 08:01:34;;;;;;;1.10;1.00;;;;;;;;;;5031698;28;20468;-91
2022/01/04 08:04:00;;;;;;;2.83;1.02;;;;;;;;;;5042405;23;20424;-86
2022/01/04 08:06:27;;;;;;;1.00;1.00;;;;;;;;;;5034467;28;20549;-87
2022/01/04 08:08:52;;;;;;;0.70;0.70;;;;;;;;;;5034343;28;20030;-87
2022/01/04 08:11:19;;;;;;;1.05;0.80;;;;;;;;;;5036464;28;20364;-88
2022/01/04 08:13:44;;;;;;;0.77;0.77;;;;;;;;;;5036141;28;20171;-87
2022/01/04 08:16:10;;;;;;;1.25;0.77;;;;;;;;;;5029520;28;20447;-85
2022/01/04 08:18:35;;;;;;;0.80;0.80;;;;;;;;;;5036147;28;20454;-86
2022/01/04 08:21:04;;;;;;;1.42;0.90;;;;;;;;;;5036356;28;20112;-87
2022/01/04 08:23:30;;;;;;;2.30;0.70;;;;;;;;;;5030996;28;20501;-88
2022/01/04 08:25:56;;;;;;;1.45;0.85;;;;;;;;;;5035906;28;20042;-88
2022/01/04 08:28:22;;;;;;;1.13;1.00;;;;;;;;;;5035823;28;20093;-87
2022/01/04 08:30:47;;;;;;;1.05;0.90;;;;;;;;;;5030405;28;20076;-87
2022/01/04 08:33:13;;;;;;;1.25;0.75;;;;;;;;;;5036549;28;20471;-85
2022/01/04 08:35:39;;;;;;;1.60;0.95;;;;;;;;;;5036330;28;20399;-87
2022/01/04 08:38:06;;;;;;;3.97;0.90;;;;;;;;;;5036138;28;20025;-88
2022/01/04 08:40:31;;;;;;;0.90;0.90;;;;;;;;;;5034797;28;20071;-86
2022/01/04 08:48:36;;;;;;;3.22;0.90;;;;;;;;;;5168221;23;20045;-91
2022/01/04 08:52:11;;;;;;;0.80;0.70;;;;;;;;;;5059534;28;20454;-91
2022/01/04 08:58:20;;;;;;;1.38;0.85;;;;;;;;;;4964475;28;20077;-90
2022/01/04 09:01:29;;;;;;;0.68;0.63;;;;;;;;;;4938575;29;20031;-90
2022/01/04 09:04:33;;;;;;;1.65;1.10;;;;;;;;;;4937504;28;20042;-91
2022/01/04 09:14:41;;;;;;;0.95;0.90;;;;;;;;;;4880084;29;20077;-90
2022/01/04 09:54:22;;;;;;;1.17;0.80;;;;;;;;;;5016831;28;20453;-89
2022/01/04 09:56:55;;;;;;;1.05;0.90;;;;;;;;;;5034050;28;20021;-89
2022/01/04 09:59:20;;;;;;;0.95;0.70;;;;;;;;;;5054312;28;20116;-89
2022/01/04 10:01:52;;;;;;;1.38;0.82;;;;;;;;;;5035590;28;20087;-90
2022/01/04 10:04:23;;;;;;;1.05;0.90;;;;;;;;;;5035884;28;20036;-89
2022/01/04 10:07:07;;;;;;;2.47;0.93;;;;;;;;;;5035399;28;20115;-90
2022/01/04 10:09:57;;;;;;;2.20;0.95;;;;;;;;;;5042449;28;20037;-90
2022/01/04 10:12:23;;;;;;;0.98;0.98;;;;;;;;;;5035550;28;20044;-90
2022/01/04 10:14:57;;;;;;;10.15;2.15;;;;;;;;;;5053839;28;20032;-90
2022/01/04 10:17:28;;;;;;;1.13;1.10;;;;;;;;;;5042806;28;20020;-91
2022/01/04 10:20:00;;;;;;;2.40;1.27;;;;;;;;;;5049020;28;20059;-91
2022/01/04 10:22:32;;;;;;;3.60;1.13;;;;;;;;;;5045796;28;20036;-91
2022/01/04 10:25:03;;;;;;;2.30;1.30;;;;;;;;;;5036219;28;20258;-90
2022/01/04 10:27:31;;;;;;;2.05;0.95;;;;;;;;;;5044676;28;20383;-90
2022/01/04 10:30:30;;;;;;;2.47;1.27;;;;;;;;;;5050733;28;20097;-91
2022/01/04 10:33:09;;;;;;;1.52;1.10;;;;;;;;;;5042835;28;20021;-87
2022/01/04 10:35:48;;;;;;;1.67;1.10;;;;;;;;;;5041547;28;20032;-90
2022/01/04 10:38:26;;;;;;;0.73;0.73;;;;;;;;;;5042630;28;20025;-90
2022/01/04 10:41:10;;;;;;;1.65;1.00;;;;;;;;;;5059451;28;20027;-91
2022/01/04 10:43:47;;;;;;;1.27;0.90;;;;;;;;;;5040219;28;20021;-89
2022/01/04 10:49:24;;;;;;;2.65;1.17;;;;;;;;;;5044833;28;20419;-91
2022/01/04 10:52:07;;;;;;;2.15;1.40;;;;;;;;;;5056850;28;20021;-89
2022/01/04 10:54:33;;;;;;;2.33;1.20;;;;;;;;;;5067960;28;20024;-89
2022/01/04 10:57:06;;;;;;;3.45;1.02;;;;;;;;;;5050414;28;20357;-90
2022/01/04 10:59:38;;;;;;;2.67;0.93;;;;;;;;;;5044972;28;20067;-90
2022/01/04 11:02:04;;;;;;;2.22;0.82;;;;;;;;;;5040451;28;20021;-87
2022/01/04 11:04:34;;;;;;;1.42;1.13;;;;;;;;;;5038759;28;20423;-88
2022/01/04 11:07:01;;;;;;;1.33;1.13;;;;;;;;;;5056569;28;20025;-86
2022/01/04 11:09:27;;;;;;;1.63;1.13;;;;;;;;;;5038639;28;20581;-87
2022/01/04 11:11:53;;;;;;;1.50;1.35;;;;;;;;;;5055893;28;20033;-91
2022/01/04 11:14:19;;;;;;;1.15;1.10;;;;;;;;;;5039126;28;20027;-88
2022/01/04 11:16:44;;;;;;;1.20;1.10;;;;;;;;;;5038618;28;20025;-88
2022/01/04 11:19:10;;;;;;;2.20;1.30;;;;;;;;;;5067528;28;20016;-88
2022/01/04 11:21:40;;;;;;;2.45;1.27;;;;;;;;;;5043434;28;20164;-89
2022/01/04 11:24:07;;;;;;;1.40;0.90;;;;;;;;;;5061817;28;20654;-88
2022/01/04 11:26:33;;;;;;;3.13;1.27;;;;;;;;;;5071457;28;20032;-88
2022/01/04 11:28:59;;;;;;;1.73;1.23;;;;;;;;;;5073322;28;20028;-88
2022/01/04 11:31:50;;;;;;;3.30;1.13;;;;;;;;;;5050317;28;20025;-88
2022/01/04 11:34:26;;;;;;;4.15;1.20;;;;;;;;;;5038097;28;20029;-87
2022/01/04 11:36:54;;;;;;;5.75;1.67;;;;;;;;;;5072815;28;20394;-89
2022/01/04 11:39:39;;;;;;;4.00;1.50;;;;;;;;;;5058925;28;20394;-91
2022/01/04 11:42:35;;;;;;;2.05;1.33;;;;;;;;;;5069928;28;20479;-89
2022/01/04 11:45:04;;;;;;;2.45;1.30;;;;;;;;;;5037925;28;20063;-88
2022/01/04 11:47:31;;;;;;;1.35;1.20;;;;;;;;;;5053708;28;20060;-88
2022/01/04 11:50:16;;;;;;;1.33;1.23;;;;;;;;;;5038471;28;20029;-88
2022/01/04 11:52:49;;;;;;;1.35;1.20;;;;;;;;;;5051939;28;20488;-89
2022/01/04 11:55:26;;;;;;;3.55;1.48;;;;;;;;;;5035440;28;20033;-89
2022/01/04 11:57:54;;;;;;;3.10;1.25;;;;;;;;;;5037368;28;20021;-88
2022/01/04 12:00:39;;;;;;;1.60;1.48;;;;;;;;;;5039112;28;20075;-86
2022/01/04 12:03:08;;;;;;;2.97;1.35;;;;;;;;;;5058138;28;20020;-87
2022/01/04 12:05:35;;;;;;;2.45;1.40;;;;;;;;;;5061606;28;20025;-89
2022/01/04 12:08:15;;;;;;;1.40;1.25;;;;;;;;;;5052600;28;20053;-89
2022/01/04 12:10:41;;;;;;;2.50;1.45;;;;;;;;;;5051958;28;20643;-89
2022/01/04 12:13:45;;;;;;;2.72;1.35;;;;;;;;;;5054679;28;20099;-88
2022/01/04 12:16:11;;;;;;;2.97;1.23;;;;;;;;;;5027861;28;20036;-88
2022/01/04 12:18:36;;;;;;;1.25;1.15;;;;;;;;;;5055962;28;20113;-88
2022/01/04 12:21:25;;;;;;;2.22;1.15;;;;;;;;;;5034157;28;20048;-88
2022/01/04 12:23:51;;;;;;;2.92;1.50;;;;;;;;;;5038241;28;20028;-88
2022/01/04 12:26:16;;;;;;;2.75;1.45;;;;;;;;;;5056405;28;20033;-90
2022/01/04 12:28:59;;;;;;;1.65;1.30;;;;;;;;;;5051880;28;20104;-88
2022/01/04 12:31:27;;;;;;;2.13;1.60;;;;;;;;;;5049770;28;20025;-88
2022/01/04 12:33:56;;;;;;;2.60;1.55;;;;;;;;;;5033936;28;20395;-89
2022/01/04 12:36:38;;;;;;;2.42;1.60;;;;;;;;;;5037294;28;20021;-90
2022/01/04 12:39:05;;;;;;;3.42;1.50;;;;;;;;;;5035255;28;20056;-89
2022/01/04 12:41:31;;;;;;;1.50;1.40;;;;;;;;;;5052336;28;20025;-89
2022/01/04 12:43:58;;;;;;;2.60;1.40;;;;;;;;;;5070980;28;20451;-89
2022/01/04 12:46:31;;;;;;;1.98;1.67;;;;;;;;;;5056003;28;20470;-90
2022/01/04 12:49:01;;;;;;;2.85;1.20;;;;;;;;;;5054923;28;20107;-90
2022/01/04 12:51:34;;;;;;;2.72;1.20;;;;;;;;;;5074041;28;20054;-92
2022/01/04 12:54:01;;;;;;;2.75;1.27;;;;;;;;;;5063939;28;20025;-90
2022/01/04 12:56:28;;;;;;;3.58;1.48;;;;;;;;;;5054563;28;20032;-90
2022/01/04 12:58:55;;;;;;;3.25;1.80;;;;;;;;;;5046806;28;20028;-90
2022/01/04 13:01:26;;;;;;;1.35;1.20;;;;;;;;;;5036670;28;20036;-89
2022/01/04 13:03:52;;;;;;;4.35;1.60;;;;;;;;;;5053514;28;20021;-88
2022/01/04 13:06:21;;;;;;;3.22;1.50;;;;;;;;;;5036342;28;20033;-87
2022/01/04 13:08:54;;;;;;;2.45;1.42;;;;;;;;;;5051505;28;20008;-85
2022/01/04 13:11:21;;;;;;;2.70;1.45;;;;;;;;;;5057596;28;20031;-85
2022/01/04 13:14:01;;;;;;;2.78;1.38;;;;;;;;;;5060258;28;20021;-88
2022/01/04 13:16:34;;;;;;;4.97;1.55;;;;;;;;;;5067444;28;20262;-87
2022/01/04 13:19:13;;;;;;;3.65;1.45;;;;;;;;;;5064337;28;20020;-87
2022/01/04 13:21:39;;;;;;;3.20;1.60;;;;;;;;;;5054191;28;20025;-88
2022/01/04 13:24:04;;;;;;;2.97;1.70;;;;;;;;;;5038796;28;20025;-89
2022/01/04 13:26:36;;;;;;;3.67;1.52;;;;;;;;;;5043994;28;20025;-87
2022/01/04 13:29:02;;;;;;;3.22;1.55;;;;;;;;;;5036732;28;20379;-87
2022/01/04 13:31:29;;;;;;;3.03;1.77;;;;;;;;;;5054343;28;20037;-88
2022/01/04 13:33:56;;;;;;;2.85;1.55;;;;;;;;;;5018198;28;20029;-88
2022/01/04 13:36:24;;;;;;;4.93;1.60;;;;;;;;;;5036289;28;20120;-88
2022/01/04 13:39:00;;;;;;;3.95;1.70;;;;;;;;;;5036161;28;20017;-88
2022/01/04 13:41:39;;;;;;;2.50;1.50;;;;;;;;;;5053128;28;20029;-87
2022/01/04 13:44:06;;;;;;;3.22;1.92;;;;;;;;;;5036504;28;20483;-86
2022/01/04 13:46:37;;;;;;;1.77;1.27;;;;;;;;;;5049746;28;20033;-91
2022/01/04 13:49:03;;;;;;;2.05;0.77;;;;;;;;;;5038040;28;20024;-88
2022/01/04 13:51:37;;;;;;;0.82;0.60;;;;;;;;;;5038960;28;20029;-87
2022/01/04 13:54:10;;;;;;;0.73;0.50;;;;;;;;;;5045086;28;20372;-87
2022/01/04 13:56:36;;;;;;;2.38;1.10;;;;;;;;;;5040130;28;20028;-84
2022/01/04 13:59:02;;;;;;;0.80;0.80;;;;;;;;;;5066633;28;20020;-87
2022/01/04 14:01:48;;;;;;;1.88;1.33;;;;;;;;;;5055068;28;20033;-87
2022/01/04 14:04:16;;;;;;;1.42;1.23;;;;;;;;;;5060373;28;20032;-86
2022/01/04 14:06:45;;;;;;;0.93;0.88;;;;;;;;;;5060294;28;20029;-87
2022/01/04 14:09:16;;;;;;;8.40;1.10;;;;;;;;;;5060441;28;20016;-85
2022/01/04 14:11:44;;;;;;;0.50;0.50;;;;;;;;;;5063966;28;20028;-85
2022/01/04 14:14:24;;;;;;;1.23;0.80;;;;;;;;;;5055716;28;20126;-84
2022/01/04 14:16:55;;;;;;;0.57;0.57;;;;;;;;;;5059328;28;20387;-85
2022/01/04 14:19:24;;;;;;;1.77;0.80;;;;;;;;;;5054039;28;20022;-85
2022/01/04 14:22:04;;;;;;;0.77;0.77;;;;;;;;;;5053648;28;20025;-86
2022/01/04 14:24:29;;;;;;;0.70;0.70;;;;;;;;;;5070292;28;20020;-86
2022/01/04 14:26:55;;;;;;;0.90;0.90;;;;;;;;;;5060569;28;20596;-87
2022/01/04 14:29:31;;;;;;;1.58;1.10;;;;;;;;;;5053363;28;20025;-85
2022/01/04 14:32:04;;;;;;;0.95;0.95;;;;;;;;;;5056538;28;20029;-87
2022/01/04 14:34:30;;;;;;;1.60;1.08;;;;;;;;;;5039477;28;20128;-86
2022/01/04 14:36:57;;;;;;;1.50;1.40;;;;;;;;;;5057177;28;20458;-87
2022/01/04 14:39:22;;;;;;;2.20;2.00;;;;;;;;;;5041396;28;20075;-85
2022/01/04 14:41:48;;;;;;;2.00;1.80;;;;;;;;;;5046686;28;20387;-84
2022/01/04 14:44:13;;;;;;;1.55;1.45;;;;;;;;;;5072732;28;20033;-85
2022/01/04 14:46:39;;;;;;;1.92;1.50;;;;;;;;;;5059266;28;20107;-86
2022/01/04 14:49:04;;;;;;;1.45;1.35;;;;;;;;;;5068169;28;20021;-85
2022/01/04 14:51:29;;;;;;;1.60;1.50;;;;;;;;;;5059175;28;20029;-83
2022/01/04 14:53:56;;;;;;;2.40;1.52;;;;;;;;;;5067774;28;20071;-86
2022/01/04 14:56:21;;;;;;;2.90;1.00;;;;;;;;;;5070745;28;20565;-85
2022/01/04 14:58:47;;;;;;;0.70;0.63;;;;;;;;;;5077017;28;20048;-85
2022/01/04 15:01:12;;;;;;;0.77;0.77;;;;;;;;;;5074101;28;20048;-85
2022/01/04 15:03:38;;;;;;;1.02;0.80;;;;;;;;;;5058101;28;20029;-84
2022/01/04 15:06:04;;;;;;;0.82;0.82;;;;;;;;;;5057000;28;20041;-85
2022/01/04 15:08:30;;;;;;;2.25;0.80;;;;;;;;;;5038960;28;20017;-84
2022/01/04 15:10:56;;;;;;;0.63;0.63;;;;;;;;;;5056904;28;20112;-85
2022/01/04 15:13:21;;;;;;;2.05;0.70;;;;;;;;;;5058553;28;20108;-85
2022/01/04 15:15:46;;;;;;;0.90;0.63;;;;;;;;;;5058460;28;20051;-86
2022/01/04 15:18:12;;;;;;;0.50;0.50;;;;;;;;;;5070317;28;20024;-86
2022/01/04 15:20:38;;;;;;;2.35;0.85;;;;;;;;;;5078188;28;20036;-86
2022/01/04 15:23:03;;;;;;;0.95;0.88;;;;;;;;;;5061324;28;20025;-85
2022/01/04 15:25:28;;;;;;;0.75;0.75;;;;;;;;;;5065155;28;20028;-85
2022/01/04 15:27:57;;;;;;;1.38;0.88;;;;;;;;;;5038006;28;20579;-87
2022/01/04 15:30:22;;;;;;;1.95;1.00;;;;;;;;;;5044156;28;20051;-87
2022/01/04 15:32:48;;;;;;;2.20;0.90;;;;;;;;;;5078702;28;20036;-86
2022/01/04 15:35:13;;;;;;;0.82;0.82;;;;;;;;;;5059578;28;20029;-86
2022/01/04 15:37:39;;;;;;;2.25;0.73;;;;;;;;;;5049820;28;20048;-87
2022/01/04 15:40:05;;;;;;;1.80;0.70;;;;;;;;;;5058257;28;20025;-86
2022/01/04 15:42:31;;;;;;;0.80;0.80;;;;;;;;;;5044459;28;20379;-88
2022/01/04 15:44:57;;;;;;;3.08;0.57;;;;;;;;;;5059194;28;20025;-88
2022/01/04 15:47:22;;;;;;;1.15;0.70;;;;;;;;;;5065091;28;20016;-87
2022/01/04 15:49:48;;;;;;;0.75;0.68;;;;;;;;;;5066486;28;20475;-87
2022/01/04 15:52:14;;;;;;;0.88;0.88;;;;;;;;;;5046081;28;20619;-86
2022/01/04 15:54:40;;;;;;;0.82;0.82;;;;;;;;;;5056756;28;20068;-87
2022/01/04 15:57:05;;;;;;;1.70;1.10;;;;;;;;;;5056750;28;20025;-86
2022/01/04 15:59:31;;;;;;;0.70;0.70;;;;;;;;;;5051709;28;20055;-85
2022/01/04 16:01:57;;;;;;;0.60;0.60;;;;;;;;;;5042257;28;20092;-88
2022/01/04 16:04:22;;;;;;;1.50;1.00;;;;;;;;;;5059258;28;20447;-88
2022/01/04 16:06:57;;;;;;;1.65;1.00;;;;;;;;;;5059721;28;20059;-88
2022/01/04 16:09:22;;;;;;;1.20;1.10;;;;;;;;;;5040694;28;20091;-87
2022/01/04 16:11:48;;;;;;;1.17;1.08;;;;;;;;;;5059077;28;20091;-88
2022/01/04 16:14:14;;;;;;;1.15;1.02;;;;;;;;;;5040055;28;20052;-88
2022/01/04 16:16:47;;;;;;;0.80;0.80;;;;;;;;;;5057034;28;20025;-87
2022/01/04 16:21:57;;;;;;;1.00;1.00;;;;;;;;;;5059096;28;20078;-89
2022/01/04 16:24:23;;;;;;;1.52;1.20;;;;;;;;;;5046988;28;20060;-89
2022/01/04 16:26:51;;;;;;;1.27;1.20;;;;;;;;;;5059062;28;20032;-89
2022/01/04 16:29:23;;;;;;;1.02;0.88;;;;;;;;;;5055079;28;20028;-88
2022/01/04 16:31:49;;;;;;;0.98;0.98;;;;;;;;;;5075030;28;20115;-87